Time;durP1;ratioP1;P1;durP2;ratioP2;P2;SDS_P1;SDS_P2;PMS_P1;PMS_P2;Temp;Humidity;BMP_temperature;BMP_pressure;BME280_temperature;BME280_humidity;BME280_pressure;Samples;Min_cycle;Max_cycle;Signal;HPM_P1;HPM_P2
2022/05/27 00:02:15;;;;;;;;;;;;;;;16.60;74.63;100601.13;6250831;22;1920;-90
2022/05/27 00:04:41;;;;;;;;;;;;;;;16.45;75.28;100596.03;6250803;22;1262;-90
2022/05/27 00:07:06;;;;;;;;;;;;;;;16.64;75.33;100602.97;6250712;22;1214;-89
2022/05/27 00:09:31;;;;;;;;;;;;;;;16.52;75.00;100601.91;6251003;22;1262;-89
2022/05/27 00:11:56;;;;;;;;;;;;;;;16.36;75.45;100598.72;6250957;22;1241;-89
2022/05/27 00:14:22;;;;;;;;;;;;;;;16.36;75.84;100595.97;6250914;22;853;-89
2022/05/27 00:16:47;;;;;;;;;;;;;;;16.79;74.65;100592.63;6251104;22;1077;-90
2022/05/27 00:19:12;;;;;;;;;;;;;;;16.73;74.82;100591.97;6250546;22;1027;-90
2022/05/27 00:21:37;;;;;;;;;;;;;;;16.68;75.12;100583.78;6250529;22;1884;-90
2022/05/27 00:24:03;;;;;;;;;;;;;;;16.50;75.76;100587.63;6250419;22;1287;-90
2022/05/27 00:26:28;;;;;;;;;;;;;;;16.32;76.33;100588.66;6251043;22;1478;-90
2022/05/27 00:28:53;;;;;;;;;;;;;;;16.20;76.71;100583.69;6251606;22;1131;-89
2022/05/27 00:31:20;;;;;;;;;;;;;;;16.41;76.38;100587.56;6250577;22;933;-90
2022/05/27 00:33:45;;;;;;;;;;;;;;;16.67;75.23;100573.09;6251216;22;1190;-89
2022/05/27 00:36:10;;;;;;;;;;;;;;;16.61;76.07;100573.22;6250531;22;1191;-90
2022/05/27 00:38:36;;;;;;;;;;;;;;;16.31;76.63;100576.78;6250501;22;1250;-90
2022/05/27 00:41:02;;;;;;;;;;;;;;;16.56;75.28;100575.28;6250621;22;1914;-89
2022/05/27 00:43:27;;;;;;;;;;;;;;;16.48;76.24;100574.09;6250632;22;1270;-89
2022/05/27 00:45:57;;;;;;;;;;;;;;;16.71;75.69;100577.63;6251369;22;1153;-89
2022/05/27 00:48:22;;;;;;;;;;;;;;;16.96;75.08;100573.31;6252191;22;1299;-90
2022/05/27 00:50:48;;;;;;;;;;;;;;;17.08;74.36;100573.53;6253011;22;1264;-89
2022/05/27 00:53:15;;;;;;;;;;;;;;;16.88;75.43;100563.88;6251018;22;1262;-90
2022/05/27 00:55:46;;;;;;;;;;;;;;;16.61;75.13;100570.44;6252053;22;1174;-90
2022/05/27 00:58:15;;;;;;;;;;;;;;;16.70;74.05;100556.66;6252591;22;1177;-90
2022/05/27 01:00:41;;;;;;;;;;;;;;;16.52;75.54;100557.69;6253463;22;1880;-89
2022/05/27 01:03:25;;;;;;;;;;;;;;;16.45;76.34;100557.34;6251483;22;1292;-89
2022/05/27 01:05:50;;;;;;;;;;;;;;;16.18;77.05;100553.63;6251005;22;1234;-90
2022/05/27 01:08:17;;;;;;;;;;;;;;;16.53;76.39;100551.84;6252952;22;1334;-90
2022/05/27 01:10:55;;;;;;;;;;;;;;;16.90;75.01;100552.50;6251690;22;1233;-89
2022/05/27 01:13:27;;;;;;;;;;;;;;;16.08;75.86;100547.56;6278140;22;1197;-90
2022/05/27 01:16:10;;;;;;;;;;;;;;;15.81;77.51;100549.34;6251873;22;1320;-90
2022/05/27 01:21:25;;;;;;;;;;;;;;;16.18;76.20;100539.81;6278448;22;2205;-90
2022/05/27 01:24:01;;;;;;;;;;;;;;;16.39;74.56;100539.28;6250292;22;1361;-90
2022/05/27 01:26:41;;;;;;;;;;;;;;;16.54;74.38;100536.91;6250868;22;1274;-89
2022/05/27 01:29:30;;;;;;;;;;;;;;;16.66;74.68;100539.09;6251231;22;1283;-90
2022/05/27 01:32:00;;;;;;;;;;;;;;;16.32;75.03;100544.44;6250375;22;1320;-89
2022/05/27 01:34:28;;;;;;;;;;;;;;;16.39;74.99;100544.81;6250482;22;1249;-90
2022/05/27 01:37:02;;;;;;;;;;;;;;;16.42;75.81;100541.38;6250250;22;1292;-90
2022/05/27 01:39:34;;;;;;;;;;;;;;;16.22;75.88;100537.25;6250638;22;1286;-90
2022/05/27 01:42:05;;;;;;;;;;;;;;;15.76;78.19;100548.66;6250108;22;1889;-90
2022/05/27 01:44:39;;;;;;;;;;;;;;;16.01;76.96;100548.00;6250623;22;1443;-90
2022/05/27 01:47:07;;;;;;;;;;;;;;;15.57;78.38;100539.75;6250651;22;1227;-89
2022/05/27 01:49:32;;;;;;;;;;;;;;;15.78;78.12;100541.69;6250678;22;1177;-90
2022/05/27 01:52:12;;;;;;;;;;;;;;;16.10;75.83;100537.81;6249997;22;1151;-90
2022/05/27 01:54:50;;;;;;;;;;;;;;;15.98;76.68;100543.13;6249789;22;1151;-91
2022/05/27 01:57:20;;;;;;;;;;;;;;;15.81;77.22;100534.75;6277782;22;785;-90
2022/05/27 02:00:04;;;;;;;;;;;;;;;15.93;76.63;100534.16;6250063;22;1275;-90
2022/05/27 02:02:30;;;;;;;;;;;;;;;15.99;76.85;100541.19;6249884;22;1922;-90
2022/05/27 02:05:13;;;;;;;;;;;;;;;15.49;77.91;100533.81;6251784;22;1451;-90
2022/05/27 02:07:41;;;;;;;;;;;;;;;15.39;79.45;100523.03;6252300;22;1325;-90
2022/05/27 02:10:10;;;;;;;;;;;;;;;15.74;78.18;100526.88;6251979;22;1348;-89
2022/05/27 02:12:40;;;;;;;;;;;;;;;15.58;78.72;100528.38;6251667;22;1281;-90
2022/05/27 02:15:08;;;;;;;;;;;;;;;15.72;77.88;100529.16;6251812;22;1252;-90
2022/05/27 02:17:35;;;;;;;;;;;;;;;15.41;77.84;100529.03;6251911;22;1239;-89
2022/05/27 02:20:05;;;;;;;;;;;;;;;15.14;80.58;100523.63;6251704;22;1202;-89
2022/05/27 02:22:32;;;;;;;;;;;;;;;15.27;79.90;100520.00;6252253;22;1888;-89
2022/05/27 02:25:07;;;;;;;;;;;;;;;15.66;78.45;100527.63;6252756;22;1143;-89
2022/05/27 02:27:41;;;;;;;;;;;;;;;15.43;78.46;100517.69;6252211;22;1323;-89
2022/05/27 02:30:08;;;;;;;;;;;;;;;15.44;78.97;100522.09;6251711;22;1253;-89
2022/05/27 02:32:42;;;;;;;;;;;;;;;15.81;78.47;100513.47;6252038;22;1304;-90
2022/05/27 02:35:11;;;;;;;;;;;;;;;15.71;78.29;100524.75;6251702;22;1231;-90
2022/05/27 02:37:42;;;;;;;;;;;;;;;15.73;77.18;100525.28;6251763;22;1245;-90
2022/05/27 02:40:13;;;;;;;;;;;;;;;15.69;78.29;100520.69;6251643;22;1154;-89
2022/05/27 02:42:57;;;;;;;;;;;;;;;15.87;77.66;100514.97;6251839;22;1877;-90
2022/05/27 02:45:39;;;;;;;;;;;;;;;15.68;76.99;100516.28;6251749;22;1259;-90
2022/05/27 02:48:17;;;;;;;;;;;;;;;15.49;78.55;100521.94;6251939;22;1241;-89
2022/05/27 02:50:48;;;;;;;;;;;;;;;15.30;79.01;100519.38;6251698;22;1150;-90
2022/05/27 02:53:13;;;;;;;;;;;;;;;15.37;78.20;100529.97;6279044;22;1207;-88
2022/05/27 02:55:47;;;;;;;;;;;;;;;15.44;78.02;100519.31;6251985;22;1281;-90
2022/05/27 02:58:12;;;;;;;;;;;;;;;15.30;78.39;100513.88;6251966;22;1288;-89
2022/05/27 03:00:39;;;;;;;;;;;;;;;15.20;77.82;100519.63;6252115;22;1896;-89
2022/05/27 03:03:04;;;;;;;;;;;;;;;14.96;79.13;100522.63;6251657;22;1467;-90
2022/05/27 03:05:32;;;;;;;;;;;;;;;14.96;80.83;100524.56;6278636;22;983;-89
2022/05/27 03:07:57;;;;;;;;;;;;;;;15.11;79.79;100521.47;6251340;22;1153;-89
2022/05/27 03:10:22;;;;;;;;;;;;;;;15.26;78.77;100512.03;6251081;22;1385;-90
2022/05/27 03:13:01;;;;;;;;;;;;;;;15.08;78.71;100522.09;6251289;22;1293;-90
2022/05/27 03:15:34;;;;;;;;;;;;;;;15.18;78.82;100519.09;6250880;22;1159;-90
2022/05/27 03:18:06;;;;;;;;;;;;;;;15.24;80.13;100514.28;6251225;22;1269;-90
2022/05/27 03:20:31;;;;;;;;;;;;;;;14.91;78.91;100508.94;6250912;22;1245;-90
2022/05/27 03:23:07;;;;;;;;;;;;;;;15.12;79.68;100512.09;6250763;22;1876;-91
2022/05/27 03:25:41;;;;;;;;;;;;;;;15.15;79.63;100514.19;6251656;22;1309;-90
2022/05/27 03:28:18;;;;;;;;;;;;;;;14.87;80.38;100515.41;6251420;22;1146;-89
2022/05/27 03:30:55;;;;;;;;;;;;;;;14.59;81.27;100512.66;6250954;22;1297;-90
2022/05/27 03:33:23;;;;;;;;;;;;;;;14.85;80.87;100525.91;6251194;22;1299;-89
2022/05/27 03:35:53;;;;;;;;;;;;;;;14.97;80.71;100517.94;6278211;22;825;-89
2022/05/27 03:38:35;;;;;;;;;;;;;;;14.78;80.57;100531.84;6251116;22;1190;-91
2022/05/27 03:41:11;;;;;;;;;;;;;;;14.61;84.05;100548.19;6251280;22;1888;-89
2022/05/27 03:43:36;;;;;;;;;;;;;;;14.39;83.63;100546.13;6251254;22;1334;-89
2022/05/27 03:46:02;;;;;;;;;;;;;;;14.10;81.69;100559.31;6251883;22;1380;-89
2022/05/27 03:48:29;;;;;;;;;;;;;;;13.93;82.30;100555.19;6251259;22;1250;-91
2022/05/27 03:50:57;;;;;;;;;;;;;;;13.92;82.98;100566.50;6251036;22;1289;-89
2022/05/27 03:54:03;;;;;;;;;;;;;;;13.96;81.55;100554.56;6250881;22;1183;-90
2022/05/27 03:56:07;;;;;;;;;;;;;;;13.95;81.82;100558.44;6277946;22;1027;-89
2022/05/27 03:58:32;;;;;;;;;;;;;;;14.12;79.99;100565.34;6250750;22;1267;-90
2022/05/27 04:00:57;;;;;;;;;;;;;;;14.37;79.52;100567.63;6251234;22;1913;-89
2022/05/27 04:03:22;;;;;;;;;;;;;;;13.92;81.10;100572.81;6250801;22;1184;-89
2022/05/27 04:05:47;;;;;;;;;;;;;;;14.06;80.95;100574.78;6251268;22;1277;-91
2022/05/27 04:08:13;;;;;;;;;;;;;;;13.85;82.85;100572.38;6250995;22;1008;-89
2022/05/27 04:10:38;;;;;;;;;;;;;;;13.80;82.03;100569.69;6250842;22;1319;-89
2022/05/27 04:13:03;;;;;;;;;;;;;;;13.85;81.90;100569.63;6261476;22;1998;-91
2022/05/27 04:15:28;;;;;;;;;;;;;;;14.12;80.80;100573.59;6281368;22;1014;-88
2022/05/27 04:17:53;;;;;;;;;;;;;;;14.13;80.97;100567.75;6279865;22;783;-90
2022/05/27 04:20:19;;;;;;;;;;;;;;;14.14;80.68;100557.56;6279671;22;822;-88
2022/05/27 04:22:44;;;;;;;;;;;;;;;13.98;81.81;100565.28;6277279;22;1904;-88
2022/05/27 04:25:10;;;;;;;;;;;;;;;14.19;80.23;100561.06;6303312;22;1201;-88
2022/05/27 04:27:35;;;;;;;;;;;;;;;14.32;80.58;100567.69;6279639;22;947;-88
2022/05/27 04:30:01;;;;;;;;;;;;;;;14.28;79.97;100563.94;6278300;22;1353;-87
2022/05/27 04:32:26;;;;;;;;;;;;;;;14.36;80.25;100574.25;6278691;22;1276;-88
2022/05/27 04:34:52;;;;;;;;;;;;;;;14.35;80.54;100572.63;6278604;22;1304;-88
2022/05/27 04:37:18;;;;;;;;;;;;;;;14.32;79.00;100579.53;6280686;22;1031;-89
2022/05/27 04:39:43;;;;;;;;;;;;;;;14.21;80.62;100575.31;6280081;22;1301;-87
2022/05/27 04:42:09;;;;;;;;;;;;;;;13.89;81.04;100570.66;6280582;22;1940;-89
2022/05/27 04:44:34;;;;;;;;;;;;;;;14.06;81.34;100569.28;6282886;22;998;-88
2022/05/27 04:47:00;;;;;;;;;;;;;;;14.50;81.13;100569.59;6279912;22;1182;-88
2022/05/27 04:52:09;;;;;;;;;;;;;;;14.77;78.48;100572.38;6279479;22;1235;-88
2022/05/27 04:54:34;;;;;;;;;;;;;;;14.46;80.47;100578.78;6301564;22;1293;-88
2022/05/27 04:56:59;;;;;;;;;;;;;;;14.22;80.16;100576.13;6279619;22;1329;-88
2022/05/27 04:59:25;;;;;;;;;;;;;;;14.35;80.50;100578.94;6304265;22;1346;-88
2022/05/27 05:01:50;;;;;;;;;;;;;;;14.12;79.51;100581.84;6281521;22;1884;-87
2022/05/27 05:04:15;;;;;;;;;;;;;;;14.34;79.93;100577.31;6279596;22;976;-87
2022/05/27 05:06:41;;;;;;;;;;;;;;;14.31;79.14;100580.66;6281110;22;987;-88
2022/05/27 05:09:06;;;;;;;;;;;;;;;14.36;81.45;100585.25;6279390;22;1300;-88
2022/05/27 05:11:32;;;;;;;;;;;;;;;14.44;79.46;100592.03;6279356;22;1199;-88
2022/05/27 05:13:57;;;;;;;;;;;;;;;14.77;78.78;100588.91;6278461;22;1200;-88
2022/05/27 05:16:22;;;;;;;;;;;;;;;14.87;78.00;100587.06;6280816;22;1015;-89
2022/05/27 05:18:47;;;;;;;;;;;;;;;14.32;78.75;100598.00;6304803;22;1090;-88
2022/05/27 05:21:13;;;;;;;;;;;;;;;14.45;80.26;100590.91;6279293;22;1888;-88
2022/05/27 05:23:38;;;;;;;;;;;;;;;14.30;78.04;100592.78;6280981;22;1285;-88
2022/05/27 05:26:03;;;;;;;;;;;;;;;14.31;78.53;100596.34;6281599;22;793;-88
2022/05/27 05:28:28;;;;;;;;;;;;;;;14.65;79.93;100596.03;6281173;22;1015;-88
2022/05/27 05:30:53;;;;;;;;;;;;;;;14.90;79.50;100594.69;6279036;22;969;-88
2022/05/27 05:33:19;;;;;;;;;;;;;;;14.97;79.45;100598.66;6278910;22;1207;-88
2022/05/27 05:35:44;;;;;;;;;;;;;;;15.07;77.91;100592.94;6279538;22;1214;-88
2022/05/27 05:38:09;;;;;;;;;;;;;;;15.26;78.76;100595.56;6279282;22;1258;-91
2022/05/27 05:40:34;;;;;;;;;;;;;;;15.45;76.90;100593.50;6282853;22;828;-88
2022/05/27 05:43:02;;;;;;;;;;;;;;;15.13;77.34;100600.00;6282415;22;1919;-88
2022/05/27 05:45:28;;;;;;;;;;;;;;;15.42;77.27;100618.13;6282880;22;896;-88
2022/05/27 05:47:53;;;;;;;;;;;;;;;15.22;78.67;100613.88;6280811;22;1177;-88
2022/05/27 05:50:18;;;;;;;;;;;;;;;14.99;78.99;100623.19;6282259;22;1042;-89
2022/05/27 05:52:44;;;;;;;;;;;;;;;15.14;78.32;100614.63;6280141;22;1170;-90
2022/05/27 05:55:10;;;;;;;;;;;;;;;15.40;76.30;100615.66;6279017;22;1345;-88
2022/05/27 05:57:36;;;;;;;;;;;;;;;14.95;76.39;100616.66;6280304;22;1181;-88
2022/05/27 06:00:01;;;;;;;;;;;;;;;15.06;77.96;100623.56;6282461;22;1019;-88
2022/05/27 06:02:27;;;;;;;;;;;;;;;15.02;78.32;100617.88;6279375;22;1898;-89
2022/05/27 06:04:52;;;;;;;;;;;;;;;14.95;79.15;100611.97;6279578;22;1225;-88
2022/05/27 06:07:17;;;;;;;;;;;;;;;15.45;78.55;100612.00;6281077;22;816;-90
2022/05/27 06:09:42;;;;;;;;;;;;;;;15.47;77.89;100605.06;6280206;22;896;-89
2022/05/27 06:12:08;;;;;;;;;;;;;;;15.83;75.67;100615.25;6278193;22;1439;-90
2022/05/27 06:14:34;;;;;;;;;;;;;;;15.96;76.44;100608.88;6252545;22;1315;-89
2022/05/27 06:16:59;;;;;;;;;;;;;;;15.95;77.04;100606.44;6280151;22;1026;-89
2022/05/27 06:19:24;;;;;;;;;;;;;;;16.12;76.33;100603.78;6278324;22;940;-89
2022/05/27 06:21:50;;;;;;;;;;;;;;;16.16;75.43;100607.56;6278353;22;1896;-89
2022/05/27 06:24:16;;;;;;;;;;;;;;;16.04;75.89;100599.84;6253232;22;1184;-90
2022/05/27 06:26:41;;;;;;;;;;;;;;;15.96;74.11;100597.03;6280667;22;789;-89
2022/05/27 06:34:34;;;;;;;;;;;;;;;15.51;75.18;100597.75;6281366;22;624;-89
2022/05/27 06:37:02;;;;;;;;;;;;;;;15.17;75.19;100608.47;6281598;22;1049;-91
2022/05/27 06:39:28;;;;;;;;;;;;;;;15.26;76.47;100622.34;6253561;22;1340;-90
2022/05/27 06:41:53;;;;;;;;;;;;;;;15.70;76.62;100628.00;6252563;22;1884;-89
2022/05/27 06:44:19;;;;;;;;;;;;;;;15.85;73.90;100629.56;6252515;22;1191;-89
2022/05/27 06:46:45;;;;;;;;;;;;;;;15.76;76.42;100620.41;6252894;22;1313;-89
2022/05/27 06:49:10;;;;;;;;;;;;;;;15.81;74.51;100612.84;6279729;22;813;-90
2022/05/27 06:51:37;;;;;;;;;;;;;;;15.13;75.11;100621.25;6278590;22;1294;-90
2022/05/27 06:54:02;;;;;;;;;;;;;;;15.37;74.21;100624.56;6252472;22;1267;-90
2022/05/27 06:56:27;;;;;;;;;;;;;;;15.65;73.64;100624.56;6252410;22;1258;-89
2022/05/27 06:58:53;;;;;;;;;;;;;;;15.79;72.68;100625.31;6279570;22;1000;-89
2022/05/27 07:01:18;;;;;;;;;;;;;;;16.06;74.29;100618.88;6279562;22;1893;-90
2022/05/27 07:03:43;;;;;;;;;;;;;;;15.78;71.80;100616.22;6251844;22;1196;-90
2022/05/27 07:06:10;;;;;;;;;;;;;;;15.64;73.05;100614.63;6279068;22;1023;-90
2022/05/27 07:08:36;;;;;;;;;;;;;;;15.58;73.42;100619.44;6252757;22;1315;-90
2022/05/27 07:11:01;;;;;;;;;;;;;;;15.82;73.79;100621.94;6252502;22;1279;-90
2022/05/27 07:13:26;;;;;;;;;;;;;;;15.75;74.24;100627.88;6266124;22;1403;-90
2022/05/27 07:15:52;;;;;;;;;;;;;;;15.66;74.20;100629.72;6305015;22;1331;-89
2022/05/27 07:18:17;;;;;;;;;;;;;;;15.66;72.47;100626.97;6278743;22;1202;-89
2022/05/27 07:20:43;;;;;;;;;;;;;;;16.02;71.81;100621.44;6279521;22;1189;-91
2022/05/27 07:23:08;;;;;;;;;;;;;;;15.97;71.93;100626.25;6305658;22;1926;-90
2022/05/27 07:25:35;;;;;;;;;;;;;;;15.55;69.46;100620.06;6280680;22;1302;-90
2022/05/27 07:28:11;;;;;;;;;;;;;;;15.71;70.03;100606.75;6278977;22;1421;-90
2022/05/27 07:30:56;;;;;;;;;;;;;;;15.97;72.17;100613.28;6278738;22;1194;-93
2022/05/27 07:33:37;;;;;;;;;;;;;;;15.94;71.33;100610.31;6277712;22;1213;-92
2022/05/27 07:36:02;;;;;;;;;;;;;;;15.79;71.39;100601.28;6277827;22;1195;-91
2022/05/27 07:38:28;;;;;;;;;;;;;;;16.06;70.46;100607.81;6277199;22;1411;-92
2022/05/27 07:40:57;;;;;;;;;;;;;;;16.52;70.33;100621.25;6278019;22;1916;-91
2022/05/27 07:43:22;;;;;;;;;;;;;;;16.33;70.34;100607.69;6278187;22;1312;-91
2022/05/27 07:46:14;;;;;;;;;;;;;;;15.79;68.21;100614.28;6278746;22;1203;-91
2022/05/27 07:49:05;;;;;;;;;;;;;;;15.64;67.37;100606.34;6279500;22;1124;-92
2022/05/27 07:51:39;;;;;;;;;;;;;;;15.58;67.36;100610.34;6277303;22;1348;-91
2022/05/27 07:54:06;;;;;;;;;;;;;;;15.97;71.16;100609.69;6276834;22;1426;-93
2022/05/27 07:56:32;;;;;;;;;;;;;;;16.13;68.94;100606.25;6277216;22;1217;-89
2022/05/27 07:59:12;;;;;;;;;;;;;;;15.89;67.91;100603.00;6251922;22;1249;-91
2022/05/27 08:01:39;;;;;;;;;;;;;;;16.05;69.88;100611.72;6278173;22;1880;-92
2022/05/27 08:04:09;;;;;;;;;;;;;;;15.97;67.07;100615.22;6252726;22;1363;-90
2022/05/27 08:06:42;;;;;;;;;;;;;;;15.86;67.34;100620.97;6277030;22;1331;-90
2022/05/27 08:09:26;;;;;;;;;;;;;;;;;;;;;
2022/05/27 08:12:22;;;;;;;;;;;;;;;16.61;65.37;100613.84;6278896;22;1235;-93
2022/05/27 08:14:48;;;;;;;;;;;;;;;15.83;65.35;100605.03;6253368;22;1257;-91
2022/05/27 08:17:18;;;;;;;;;;;;;;;15.88;68.83;100612.41;6278112;22;1303;-90
2022/05/27 08:20:17;;;;;;;;;;;;;;;15.94;67.12;100621.34;6279364;22;1312;-91
2022/05/27 08:22:46;;;;;;;;;;;;;;;15.67;68.68;100623.09;6283430;22;1905;-88
2022/05/27 08:25:11;;;;;;;;;;;;;;;15.70;70.84;100611.44;6283276;22;1018;-89
2022/05/27 08:27:36;;;;;;;;;;;;;;;15.84;67.91;100619.66;6282267;22;1160;-89
2022/05/27 08:30:02;;;;;;;;;;;;;;;16.35;70.05;100621.97;6281852;22;1190;-90
2022/05/27 08:32:31;;;;;;;;;;;;;;;16.45;65.64;100621.69;6282176;22;1567;-91
2022/05/27 08:40:54;;;;;;;;;;;;;;;16.24;66.78;100635.25;6283180;22;655;-88
2022/05/27 08:43:19;;;;;;;;;;;;;;;15.71;63.46;100628.81;6280142;22;1325;-88
2022/05/27 08:45:47;;;;;;;;;;;;;;;15.87;63.83;100632.84;6278615;22;1234;-91
2022/05/27 08:48:13;;;;;;;;;;;;;;;16.31;65.26;100639.50;6278673;22;1161;-91
2022/05/27 08:50:46;;;;;;;;;;;;;;;16.01;63.85;100627.25;6279085;22;1262;-90
2022/05/27 08:53:17;;;;;;;;;;;;;;;15.99;62.70;100627.56;6279823;22;1271;-90
2022/05/27 09:01:14;;;;;;;;;;;;;;;16.26;59.30;100624.66;6282488;22;1884;-88
2022/05/27 09:03:43;;;;;;;;;;;;;;;16.20;60.94;100634.22;6280590;22;1219;-89
2022/05/27 09:06:10;;;;;;;;;;;;;;;16.08;58.02;100624.88;6280168;22;1348;-89
2022/05/27 09:08:35;;;;;;;;;;;;;;;15.50;59.22;100633.94;6282504;22;1377;-88
2022/05/27 09:11:27;;;;;;;;;;;;;;;15.45;60.60;100618.31;6279736;22;960;-90
2022/05/27 09:14:11;;;;;;;;;;;;;;;15.79;59.72;100619.78;6281276;22;1273;-88
2022/05/27 09:16:42;;;;;;;;;;;;;;;15.93;60.83;100637.09;6285647;22;801;-89
2022/05/27 09:19:26;;;;;;;;;;;;;;;16.21;61.77;100621.22;6280374;22;1204;-87
2022/05/27 09:22:07;;;;;;;;;;;;;;;16.50;60.33;100629.84;6282916;22;1910;-90
2022/05/27 09:24:54;;;;;;;;;;;;;;;16.46;58.52;100622.53;6286248;22;979;-89
2022/05/27 09:27:30;;;;;;;;;;;;;;;16.27;58.28;100618.03;6283985;22;821;-89
2022/05/27 09:29:59;;;;;;;;;;;;;;;16.58;58.29;100620.00;6282548;22;987;-88
2022/05/27 09:32:30;;;;;;;;;;;;;;;16.76;55.00;100627.25;6280626;22;1215;-87
2022/05/27 09:34:57;;;;;;;;;;;;;;;16.58;56.80;100615.28;6282162;22;841;-89
2022/05/27 09:37:28;;;;;;;;;;;;;;;16.67;59.05;100614.53;6282169;22;1292;-88
2022/05/27 09:39:55;;;;;;;;;;;;;;;16.64;56.31;100615.97;6281455;22;1092;-89
2022/05/27 09:42:32;;;;;;;;;;;;;;;16.33;54.55;100623.44;6280865;22;1884;-87
2022/05/27 09:45:01;;;;;;;;;;;;;;;15.94;56.59;100626.88;6281381;22;1268;-88
2022/05/27 09:47:34;;;;;;;;;;;;;;;16.17;58.82;100625.75;6281735;22;991;-87
2022/05/27 09:50:08;;;;;;;;;;;;;;;16.58;56.26;100611.72;6280661;22;1095;-90
2022/05/27 09:52:35;;;;;;;;;;;;;;;16.84;56.91;100607.09;6281390;22;1341;-90
2022/05/27 09:55:13;;;;;;;;;;;;;;;17.19;54.37;100609.97;6280167;22;1159;-89
2022/05/27 09:57:53;;;;;;;;;;;;;;;16.91;54.25;100607.47;6280604;22;1304;-89
2022/05/27 10:00:32;;;;;;;;;;;;;;;17.03;53.99;100617.91;6283483;22;1212;-89
2022/05/27 10:03:18;;;;;;;;;;;;;;;17.58;53.04;100623.72;6283322;22;1910;-89
2022/05/27 10:05:54;;;;;;;;;;;;;;;17.30;57.01;100608.53;6280934;22;1123;-87
2022/05/27 10:08:34;;;;;;;;;;;;;;;17.51;55.86;100609.56;6282680;22;927;-90
2022/05/27 10:11:25;;;;;;;;;;;;;;;17.40;53.37;100620.13;6283243;22;1162;-89
2022/05/27 10:14:06;;;;;;;;;;;;;;;16.76;53.29;100630.00;6274800;22;1282;-89
2022/05/27 10:16:31;;;;;;;;;;;;;;;16.81;52.88;100615.25;6281158;22;1104;-87
2022/05/27 10:19:06;;;;;;;;;;;;;;;16.97;54.10;100611.72;6280851;22;1156;-88
2022/05/27 10:21:31;;;;;;;;;;;;;;;17.16;57.67;100605.09;6280648;22;1943;-87
2022/05/27 10:24:12;;;;;;;;;;;;;;;17.56;54.21;100612.16;6280564;22;1326;-89
2022/05/27 10:26:39;;;;;;;;;;;;;;;17.43;53.86;100612.31;6280695;22;1384;-89
2022/05/27 10:29:06;;;;;;;;;;;;;;;17.46;51.78;100606.94;6280054;22;1383;-90
2022/05/27 10:31:32;;;;;;;;;;;;;;;16.97;52.52;100614.50;6281777;22;907;-89
2022/05/27 10:34:00;;;;;;;;;;;;;;;16.58;51.69;100614.47;6279781;22;1218;-89
2022/05/27 10:36:37;;;;;;;;;;;;;;;16.62;53.71;100615.47;6279990;22;1163;-90
2022/05/27 10:39:04;;;;;;;;;;;;;;;16.71;53.09;100618.28;6280716;22;1127;-91
2022/05/27 10:41:50;;;;;;;;;;;;;;;16.39;51.63;100608.34;6282256;22;1928;-88
2022/05/27 10:44:21;;;;;;;;;;;;;;;16.81;52.76;100605.00;6217633;22;1244;-90
2022/05/27 10:46:55;;;;;;;;;;;;;;;16.91;54.97;100590.91;6280434;22;1427;-88
2022/05/27 10:49:39;;;;;;;;;;;;;;;17.33;55.92;100585.78;6278589;22;1325;-88
2022/05/27 10:52:17;;;;;;;;;;;;;;;17.48;52.49;100590.03;6279802;22;1215;-89
2022/05/27 10:55:01;;;;;;;;;;;;;;;17.85;49.71;100597.72;6280457;22;1226;-88
2022/05/27 11:03:12;;;;;;;;;;;;;;;17.33;51.58;100588.53;6283247;22;1896;-88
2022/05/27 11:05:44;;;;;;;;;;;;;;;17.22;49.01;100576.16;6284137;22;921;-88
2022/05/27 11:08:16;;;;;;;;;;;;;;;17.07;49.32;100594.03;6282780;22;1330;-87
2022/05/27 11:10:47;;;;;;;;;;;;;;;16.99;49.59;100587.34;6283319;22;1293;-88
2022/05/27 11:16:29;;;;;;;;;;;;;;;16.54;51.11;100594.13;6281745;22;600;-90
2022/05/27 11:19:13;;;;;;;;;;;;;;;16.99;51.12;100609.47;6279937;22;1472;-90
2022/05/27 11:21:44;;;;;;;;;;;;;;;17.14;50.43;100608.19;6280484;22;1888;-90
2022/05/27 11:24:12;;;;;;;;;;;;;;;17.12;49.79;100607.69;6279931;22;1371;-89
2022/05/27 11:26:41;;;;;;;;;;;;;;;17.00;46.91;100588.97;6279840;22;1121;-90
2022/05/27 11:29:16;;;;;;;;;;;;;;;17.06;47.79;100597.91;6282023;22;821;-90
2022/05/27 11:32:11;;;;;;;;;;;;;;;16.99;46.40;100616.94;6280391;22;1265;-89
2022/05/27 11:34:54;;;;;;;;;;;;;;;16.82;46.94;100606.63;6174652;22;1339;-90
2022/05/27 11:37:29;;;;;;;;;;;;;;;17.03;49.47;100591.06;6281010;22;1301;-89
2022/05/27 11:39:55;;;;;;;;;;;;;;;16.90;47.20;100603.09;6281218;22;1249;-89
2022/05/27 11:42:39;;;;;;;;;;;;;;;17.00;45.78;100608.31;6280453;22;1919;-89
2022/05/27 11:45:17;;;;;;;;;;;;;;;16.98;46.40;100591.25;6280232;22;1273;-89
2022/05/27 11:47:46;;;;;;;;;;;;;;;17.05;47.27;100604.59;6279406;22;1298;-91
2022/05/27 11:50:11;;;;;;;;;;;;;;;16.68;46.28;100614.19;6281380;22;1318;-89
2022/05/27 11:52:48;;;;;;;;;;;;;;;16.54;47.08;100611.50;6281968;22;1203;-90
2022/05/27 11:55:21;;;;;;;;;;;;;;;16.55;47.08;100624.19;6279182;22;1218;-89
2022/05/27 11:57:47;;;;;;;;;;;;;;;16.85;46.38;100617.03;6279812;22;1080;-89
2022/05/27 12:00:16;;;;;;;;;;;;;;;16.97;47.80;100605.38;6279291;22;1233;-88
2022/05/27 12:02:54;;;;;;;;;;;;;;;17.35;48.07;100623.03;6279462;22;1881;-88
2022/05/27 12:05:26;;;;;;;;;;;;;;;17.67;44.03;100612.69;6281619;22;765;-89
2022/05/27 12:07:57;;;;;;;;;;;;;;;17.62;43.16;100613.66;6278571;22;1131;-90
2022/05/27 12:10:30;;;;;;;;;;;;;;;17.94;43.51;100609.59;6278195;22;1135;-86
2022/05/27 12:13:05;;;;;;;;;;;;;;;18.06;41.06;100637.44;6278431;22;1299;-87
2022/05/27 12:15:44;;;;;;;;;;;;;;;17.90;43.72;100607.81;6278845;22;1501;-87
2022/05/27 12:18:14;;;;;;;;;;;;;;;17.96;41.90;100596.22;6279194;22;1252;-88
2022/05/27 12:20:40;;;;;;;;;;;;;;;18.04;42.01;100600.13;6280386;22;1166;-90
2022/05/27 12:23:08;;;;;;;;;;;;;;;17.87;43.30;100603.72;6278128;22;1893;-88
2022/05/27 12:25:41;;;;;;;;;;;;;;;17.63;45.57;100611.72;6280255;22;1103;-90
2022/05/27 12:28:07;;;;;;;;;;;;;;;17.06;45.78;100597.09;6279535;22;1448;-89
2022/05/27 12:30:40;;;;;;;;;;;;;;;16.77;45.84;100614.25;6279582;22;1222;-90
2022/05/27 12:33:06;;;;;;;;;;;;;;;16.72;45.88;100606.09;6279971;22;1262;-89
2022/05/27 12:35:31;;;;;;;;;;;;;;;16.42;45.79;100591.94;6280708;22;766;-90
2022/05/27 12:37:58;;;;;;;;;;;;;;;16.32;43.91;100597.75;6253972;22;1588;-91
2022/05/27 12:40:29;;;;;;;;;;;;;;;16.40;44.76;100627.38;6279442;22;1035;-88
2022/05/27 12:42:55;;;;;;;;;;;;;;;16.49;45.09;100599.78;6277880;22;1908;-89
2022/05/27 12:45:38;;;;;;;;;;;;;;;16.53;45.58;100615.41;6278699;22;755;-89
2022/05/27 12:48:04;;;;;;;;;;;;;;;16.51;45.92;100625.13;6278598;22;833;-89
2022/05/27 12:50:31;;;;;;;;;;;;;;;16.79;45.91;100600.91;6278605;22;833;-90
2022/05/27 12:52:58;;;;;;;;;;;;;;;17.02;42.05;100621.81;6276659;22;1294;-89
2022/05/27 13:00:55;;;;;;;;;;;;;;;17.41;42.45;100601.56;6278466;22;762;-89
2022/05/27 13:01:19;;;;;;;;;;;;;;;17.94;41.72;100594.94;6278436;22;1926;-90
2022/05/27 13:03:48;;;;;;;;;;;;;;;17.84;39.99;100600.81;6278745;22;1285;-89
2022/05/27 13:06:19;;;;;;;;;;;;;;;17.78;41.74;100609.25;6277452;22;1432;-90
2022/05/27 13:08:47;;;;;;;;;;;;;;;17.88;41.34;100610.06;6277189;22;1186;-89
2022/05/27 13:11:37;;;;;;;;;;;;;;;18.17;40.67;100606.63;6276568;22;1184;-90
2022/05/27 13:14:03;;;;;;;;;;;;;;;18.20;40.71;100604.03;6277770;22;1223;-90
2022/05/27 13:16:40;;;;;;;;;;;;;;;18.56;38.99;100592.50;6251189;22;1137;-90
2022/05/27 13:19:06;;;;;;;;;;;;;;;18.53;41.52;100591.22;6276839;22;1310;-90
2022/05/27 13:21:31;;;;;;;;;;;;;;;18.88;39.56;100591.13;6251642;22;1928;-90
2022/05/27 13:24:02;;;;;;;;;;;;;;;18.52;38.09;100578.50;6251235;22;1410;-90
2022/05/27 13:26:41;;;;;;;;;;;;;;;18.22;39.95;100596.19;6278244;22;929;-90
2022/05/27 13:29:23;;;;;;;;;;;;;;;21.48;35.57;100600.13;6251194;22;1109;-88
2022/05/27 13:31:49;;;;;;;;;;;;;;;20.03;36.41;100582.13;6277994;22;845;-89
2022/05/27 13:34:16;;;;;;;;;;;;;;;18.77;38.09;100612.03;6251003;22;1310;-89
2022/05/27 13:36:49;;;;;;;;;;;;;;;21.96;34.71;100592.78;6251629;22;1244;-88
2022/05/27 13:39:18;;;;;;;;;;;;;;;22.89;30.39;100585.75;6251469;22;1161;-89
2022/05/27 13:41:47;;;;;;;;;;;;;;;20.47;34.82;100590.84;6250549;22;1935;-89